sensor_id;sensor_type;location;lat;lon;timestamp;pressure;altitude;pressure_sealevel;temperature;humidity
4123;BME280;2075;51.062;6.920;2022-11-20T00:01:54;90320.38;;;-144.48;95.36
4123;BME280;2075;51.062;6.920;2022-11-20T00:04:40;90070.78;;;-144.48;95.32
4123;BME280;2075;51.062;6.920;2022-11-20T00:07:25;89218.63;;;-144.48;96.02
4123;BME280;2075;51.062;6.920;2022-11-20T00:10:10;88184.13;;;-144.48;96.28
4123;BME280;2075;51.062;6.920;2022-11-20T00:12:57;89906.41;;;-144.48;95.41
4123;BME280;2075;51.062;6.920;2022-11-20T00:15:43;89384.97;;;-144.48;95.72
4123;BME280;2075;51.062;6.920;2022-11-20T00:18:30;89149.63;;;-144.48;95.88
4123;BME280;2075;51.062;6.920;2022-11-20T00:21:18;86266.09;;;-144.48;97.22
4123;BME280;2075;51.062;6.920;2022-11-20T00:24:04;85633.75;;;-144.48;97.18
4123;BME280;2075;51.062;6.920;2022-11-20T00:26:50;88011.75;;;-144.48;96.42
4123;BME280;2075;51.062;6.920;2022-11-20T00:29:35;89109.06;;;-144.48;95.92
4123;BME280;2075;51.062;6.920;2022-11-20T00:32:21;88792.63;;;-144.48;96.33
4123;BME280;2075;51.062;6.920;2022-11-20T00:35:08;88143.56;;;-144.48;96.54
4123;BME280;2075;51.062;6.920;2022-11-20T00:37:54;87131.72;;;-144.48;96.85
4123;BME280;2075;51.062;6.920;2022-11-20T00:40:39;86580.28;;;-144.48;97.07
4123;BME280;2075;51.062;6.920;2022-11-20T00:43:24;88960.97;;;-144.48;96.13
4123;BME280;2075;51.062;6.920;2022-11-20T00:46:13;89100.94;;;-144.48;95.95
4123;BME280;2075;51.062;6.920;2022-11-20T00:48:59;89602.06;;;-144.48;95.65
4123;BME280;2075;51.062;6.920;2022-11-20T00:51:46;90168.19;;;-144.48;95.46
4123;BME280;2075;51.062;6.920;2022-11-20T00:54:31;90087.00;;;-144.48;95.36
4123;BME280;2075;51.062;6.920;2022-11-20T00:57:17;89880.03;;;-144.48;95.66
4123;BME280;2075;51.062;6.920;2022-11-20T01:00:03;90608.56;;;-144.48;95.11
4123;BME280;2075;51.062;6.920;2022-11-20T01:02:49;91065.22;;;-144.48;95.21
4123;BME280;2075;51.062;6.920;2022-11-20T01:05:34;91830.53;;;-144.48;94.45
4123;BME280;2075;51.062;6.920;2022-11-20T01:08:21;91392.03;;;-144.48;95.03
4123;BME280;2075;51.062;6.920;2022-11-20T01:11:09;90602.47;;;-144.48;95.29
4123;BME280;2075;51.062;6.920;2022-11-20T01:13:56;90011.94;;;-144.48;95.76
4123;BME280;2075;51.062;6.920;2022-11-20T01:16:44;89833.38;;;-144.48;95.73
4123;BME280;2075;51.062;6.920;2022-11-20T01:19:29;90843.97;;;-144.48;95.17
4123;BME280;2075;51.062;6.920;2022-11-20T01:22:15;90222.97;;;-144.48;95.56
4123;BME280;2075;51.062;6.920;2022-11-20T01:25:02;90675.53;;;-144.48;95.05
4123;BME280;2075;51.062;6.920;2022-11-20T01:27:48;91584.88;;;-144.48;94.49
4123;BME280;2075;51.062;6.920;2022-11-20T01:30:33;92232.53;;;-144.48;94.24
4123;BME280;2075;51.062;6.920;2022-11-20T01:33:19;91974.69;;;-144.48;94.44
4123;BME280;2075;51.062;6.920;2022-11-20T01:36:05;91988.91;;;-144.48;94.47
4123;BME280;2075;51.062;6.920;2022-11-20T01:38:51;91479.31;;;-144.48;94.71
4123;BME280;2075;51.062;6.920;2022-11-20T01:41:38;92216.31;;;-144.48;94.02
4123;BME280;2075;51.062;6.920;2022-11-20T01:44:52;92102.59;;;-144.48;94.48
4123;BME280;2075;51.062;6.920;2022-11-20T01:47:40;92526.97;;;-144.48;93.88
4123;BME280;2075;51.062;6.920;2022-11-20T01:50:28;92457.94;;;-144.48;94.24
4123;BME280;2075;51.062;6.920;2022-11-20T01:53:16;91528.03;;;-144.48;94.68
4123;BME280;2075;51.062;6.920;2022-11-20T01:56:06;91932.03;;;-144.48;94.48
4123;BME280;2075;51.062;6.920;2022-11-20T01:58:58;91970.63;;;-144.48;94.57
4123;BME280;2075;51.062;6.920;2022-11-20T02:01:48;92043.72;;;-144.48;94.29
4123;BME280;2075;51.062;6.920;2022-11-20T02:04:34;92068.06;;;-144.48;94.43
4123;BME280;2075;51.062;6.920;2022-11-20T02:07:20;91134.25;;;-144.48;95.14
4123;BME280;2075;51.062;6.920;2022-11-20T02:10:07;91483.38;;;-144.48;94.79
4123;BME280;2075;51.062;6.920;2022-11-20T02:12:53;91422.47;;;-144.48;94.88
4123;BME280;2075;51.062;6.920;2022-11-20T02:15:58;90967.78;;;-144.48;95.22
4123;BME280;2075;51.062;6.920;2022-11-20T02:18:44;91008.38;;;-144.48;95.04
4123;BME280;2075;51.062;6.920;2022-11-20T02:21:35;90476.63;;;-144.48;95.39
4123;BME280;2075;51.062;6.920;2022-11-20T02:24:23;90058.59;;;-144.48;95.62
4123;BME280;2075;51.062;6.920;2022-11-20T02:27:11;89271.34;;;-144.48;95.95
4123;BME280;2075;51.062;6.920;2022-11-20T02:29:58;89364.69;;;-144.48;95.91
4123;BME280;2075;51.062;6.920;2022-11-20T02:32:45;88818.97;;;-144.48;96.25
4123;BME280;2075;51.062;6.920;2022-11-20T02:35:43;88109.09;;;-144.48;96.45
4123;BME280;2075;51.062;6.920;2022-11-20T02:38:29;90084.97;;;-144.48;95.58
4123;BME280;2075;51.062;6.920;2022-11-20T02:41:15;89524.97;;;-144.48;96.13
4123;BME280;2075;51.062;6.920;2022-11-20T02:44:01;89311.94;;;-144.48;96.02
4123;BME280;2075;51.062;6.920;2022-11-20T02:46:47;90501.00;;;-144.48;95.63
4123;BME280;2075;51.062;6.920;2022-11-20T02:49:32;89662.94;;;-144.48;95.97
4123;BME280;2075;51.062;6.920;2022-11-20T02:52:18;90356.91;;;-144.48;95.42
4123;BME280;2075;51.062;6.920;2022-11-20T02:55:04;89853.66;;;-144.48;95.89
4123;BME280;2075;51.062;6.920;2022-11-20T02:57:51;90823.69;;;-144.48;95.29
4123;BME280;2075;51.062;6.920;2022-11-20T03:00:36;90496.94;;;-144.48;95.51
4123;BME280;2075;51.062;6.920;2022-11-20T03:03:22;89802.94;;;-144.48;96.08
4123;BME280;2075;51.062;6.920;2022-11-20T03:06:07;89713.66;;;-144.48;95.83
4123;BME280;2075;51.062;6.920;2022-11-20T03:08:53;88415.34;;;-144.48;96.42
4123;BME280;2075;51.062;6.920;2022-11-20T03:11:38;88421.44;;;-144.48;96.20
4123;BME280;2075;51.062;6.920;2022-11-20T03:14:25;88535.00;;;-144.48;96.39
4123;BME280;2075;51.062;6.920;2022-11-20T03:17:10;86553.94;;;-144.48;97.12
4123;BME280;2075;51.062;6.920;2022-11-20T03:19:56;85050.13;;;-144.48;97.44
4123;BME280;2075;51.062;6.920;2022-11-20T03:22:41;82915.13;;;-144.48;97.87
4123;BME280;2075;51.062;6.920;2022-11-20T03:25:27;84029.03;;;-144.48;97.73
4123;BME280;2075;51.062;6.920;2022-11-20T03:28:12;78738.06;;;-144.48;98.79
4123;BME280;2075;51.062;6.920;2022-11-20T03:31:05;74212.59;;;-144.48;100.00
4123;BME280;2075;51.062;6.920;2022-11-20T03:33:50;73126.06;;;-144.48;100.00
4123;BME280;2075;51.062;6.920;2022-11-20T03:36:37;73386.56;;;-144.48;100.00
4123;BME280;2075;51.062;6.920;2022-11-20T03:39:23;67644.19;;;-144.48;100.00
4123;BME280;2075;51.062;6.920;2022-11-20T03:42:08;68676.53;;;-144.48;100.00
4123;BME280;2075;51.062;6.920;2022-11-20T03:45:16;77278.09;;;-144.48;100.00
4123;BME280;2075;51.062;6.920;2022-11-20T03:48:03;81331.94;;;-144.48;100.00
4123;BME280;2075;51.062;6.920;2022-11-20T03:50:49;82789.56;;;-144.48;100.00
4123;BME280;2075;51.062;6.920;2022-11-20T03:53:34;82364.38;;;-144.48;100.00
4123;BME280;2075;51.062;6.920;2022-11-20T03:56:22;76663.56;;;-144.48;100.00
4123;BME280;2075;51.062;6.920;2022-11-20T03:59:09;71692.69;;;-144.48;100.00
4123;BME280;2075;51.062;6.920;2022-11-20T04:01:55;70072.31;;;-144.48;100.00
4123;BME280;2075;51.062;6.920;2022-11-20T04:04:42;67644.19;;;-144.48;100.00
4123;BME280;2075;51.062;6.920;2022-11-20T04:07:27;69709.19;;;-144.48;100.00
4123;BME280;2075;51.062;6.920;2022-11-20T04:10:13;67902.25;;;-144.48;100.00
4123;BME280;2075;51.062;6.920;2022-11-20T04:12:58;64033.44;;;-144.48;100.00
4123;BME280;2075;51.062;6.920;2022-11-20T04:15:44;63002.50;;;-144.48;100.00
4123;BME280;2075;51.062;6.920;2022-11-20T04:18:29;58881.84;;;-144.48;100.00
4123;BME280;2075;51.062;6.920;2022-11-20T04:21:16;58367.09;;;-144.48;100.00
4123;BME280;2075;51.062;6.920;2022-11-20T04:24:01;56566.16;;;-144.48;100.00
4123;BME280;2075;51.062;6.920;2022-11-20T04:26:47;54252.06;;;-144.48;100.00
4123;BME280;2075;51.062;6.920;2022-11-20T04:29:32;52196.44;;;-144.48;100.00
4123;BME280;2075;51.062;6.920;2022-11-20T04:32:17;56566.16;;;-144.48;100.00
4123;BME280;2075;51.062;6.920;2022-11-20T04:35:03;58881.84;;;-144.48;100.00
4123;BME280;2075;51.062;6.920;2022-11-20T04:37:52;60684.00;;;-144.48;100.00
4123;BME280;2075;51.062;6.920;2022-11-20T04:40:37;62744.81;;;-144.48;100.00
4123;BME280;2075;51.062;6.920;2022-11-20T04:43:23;63002.50;;;-144.48;100.00
4123;BME280;2075;51.062;6.920;2022-11-20T04:46:08;64806.84;;;-144.48;100.00
4123;BME280;2075;51.062;6.920;2022-11-20T04:48:54;64806.84;;;-144.48;100.00
4123;BME280;2075;51.062;6.920;2022-11-20T04:51:39;64291.22;;;-144.48;100.00
4123;BME280;2075;51.062;6.920;2022-11-20T04:54:26;65580.44;;;-144.48;100.00
4123;BME280;2075;51.062;6.920;2022-11-20T04:57:13;65322.56;;;-144.48;100.00
4123;BME280;2075;51.062;6.920;2022-11-20T04:59:58;66096.25;;;-144.48;100.00
4123;BME280;2075;51.062;6.920;2022-11-20T05:02:43;65322.56;;;-144.48;100.00
4123;BME280;2075;51.062;6.920;2022-11-20T05:05:29;65322.56;;;-144.48;100.00
4123;BME280;2075;51.062;6.920;2022-11-20T05:08:14;63775.66;;;-144.48;100.00
4123;BME280;2075;51.062;6.920;2022-11-20T05:11:02;66354.19;;;-144.48;100.00
4123;BME280;2075;51.062;6.920;2022-11-20T05:13:48;68160.31;;;-144.48;100.00
4123;BME280;2075;51.062;6.920;2022-11-20T05:16:34;72819.16;;;-144.48;100.00
4123;BME280;2075;51.062;6.920;2022-11-20T05:19:20;68418.44;;;-144.48;100.00
4123;BME280;2075;51.062;6.920;2022-11-20T05:22:05;68418.44;;;-144.48;100.00
4123;BME280;2075;51.062;6.920;2022-11-20T05:24:50;67386.16;;;-144.48;100.00
4123;BME280;2075;51.062;6.920;2022-11-20T05:27:37;68934.69;;;-144.48;100.00
4123;BME280;2075;51.062;6.920;2022-11-20T05:30:23;67902.25;;;-144.48;100.00
4123;BME280;2075;51.062;6.920;2022-11-20T05:33:09;64291.22;;;-144.48;100.00
4123;BME280;2075;51.062;6.920;2022-11-20T05:35:57;64291.22;;;-144.48;100.00
4123;BME280;2075;51.062;6.920;2022-11-20T05:38:43;65064.69;;;-144.48;100.00
4123;BME280;2075;51.062;6.920;2022-11-20T05:41:29;62487.13;;;-144.48;100.00
4123;BME280;2075;51.062;6.920;2022-11-20T05:44:15;61714.25;;;-144.48;100.00
4123;BME280;2075;51.062;6.920;2022-11-20T05:47:00;61199.09;;;-144.48;100.00
4123;BME280;2075;51.062;6.920;2022-11-20T05:49:46;60684.00;;;-144.48;100.00
4123;BME280;2075;51.062;6.920;2022-11-20T05:52:31;58109.78;;;-144.48;100.00
4123;BME280;2075;51.062;6.920;2022-11-20T05:55:17;56823.38;;;-144.48;100.00
4123;BME280;2075;51.062;6.920;2022-11-20T05:58:02;54252.06;;;-144.48;100.00
4123;BME280;2075;51.062;6.920;2022-11-20T06:00:49;57852.44;;;-144.48;100.00
4123;BME280;2075;51.062;6.920;2022-11-20T06:03:34;52196.44;;;-144.48;100.00
4123;BME280;2075;51.062;6.920;2022-11-20T06:06:20;47575.78;;;-144.48;100.00
4123;BME280;2075;51.062;6.920;2022-11-20T06:09:05;43473.84;;;-144.48;100.00
4123;BME280;2075;51.062;6.920;2022-11-20T06:11:51;41168.72;;;-144.48;100.00
4123;BME280;2075;51.062;6.920;2022-11-20T06:14:36;38609.28;;;-144.48;100.00
4123;BME280;2075;51.062;6.920;2022-11-20T06:17:23;38353.47;;;-144.48;100.00
4123;BME280;2075;51.062;6.920;2022-11-20T06:20:09;36051.84;;;-144.48;100.00
4123;BME280;2075;51.062;6.920;2022-11-20T06:22:55;32730.03;;;-144.48;100.00
4123;BME280;2075;51.062;6.920;2022-11-20T06:25:41;26861.09;;;-144.48;100.00
4123;BME280;2075;51.062;6.920;2022-11-20T06:28:27;24822.16;;;-144.48;100.00
4123;BME280;2075;51.062;6.920;2022-11-20T06:31:13;22784.44;;;-144.48;100.00
4123;BME280;2075;51.062;6.920;2022-11-20T06:34:00;21766.06;;;-144.48;100.00
4123;BME280;2075;51.062;6.920;2022-11-20T06:36:45;21002.47;;;-144.48;100.00
4123;BME280;2075;51.062;6.920;2022-11-20T06:39:31;20748.00;;;-144.48;100.00
4123;BME280;2075;51.062;6.920;2022-11-20T06:42:16;18458.47;;;-144.48;100.00
4123;BME280;2075;51.062;6.920;2022-11-20T06:45:02;18204.19;;;-144.48;100.00
4123;BME280;2075;51.062;6.920;2022-11-20T06:47:48;17949.91;;;-144.48;100.00
4123;BME280;2075;51.062;6.920;2022-11-20T06:50:36;16933.00;;;-144.48;100.00
4123;BME280;2075;51.062;6.920;2022-11-20T06:53:21;14900.13;;;-144.48;100.00
4123;BME280;2075;51.062;6.920;2022-11-20T06:56:06;13884.19;;;-144.48;100.00
4123;BME280;2075;51.062;6.920;2022-11-20T06:58:52;11345.63;;;-144.48;100.00
4123;BME280;2075;51.062;6.920;2022-11-20T07:01:37;9316.19;;;-144.48;100.00
4123;BME280;2075;51.062;6.920;2022-11-20T07:04:23;9062.59;;;-144.48;100.00
4123;BME280;2075;51.062;6.920;2022-11-20T07:07:09;7288.00;;;-144.48;100.00
4123;BME280;2075;51.062;6.920;2022-11-20T07:09:55;5767.69;;;-144.48;100.00
4123;BME280;2075;51.062;6.920;2022-11-20T07:12:40;3994.88;;;-144.48;100.00
4123;BME280;2075;51.062;6.920;2022-11-20T07:15:26;3235.38;;;-144.48;100.00
4123;BME280;2075;51.062;6.920;2022-11-20T07:18:12;3235.38;;;-144.48;100.00
4123;BME280;2075;51.062;6.920;2022-11-20T07:21:00;2729.16;;;-144.48;100.00
4123;BME280;2075;51.062;6.920;2022-11-20T07:23:47;2729.16;;;-144.48;100.00
4123;BME280;2075;51.062;6.920;2022-11-20T07:26:32;3488.53;;;-144.48;100.00
4123;BME280;2075;51.062;6.920;2022-11-20T07:29:18;6527.75;;;-144.48;100.00
4123;BME280;2075;51.062;6.920;2022-11-20T07:32:04;10330.75;;;-144.48;100.00
4123;BME280;2075;51.062;6.920;2022-11-20T07:34:49;13376.31;;;-144.48;100.00
4123;BME280;2075;51.062;6.920;2022-11-20T07:37:34;16170.53;;;-144.48;100.00
4123;BME280;2075;51.062;6.920;2022-11-20T07:40:21;19475.84;;;-144.48;100.00
4123;BME280;2075;51.062;6.920;2022-11-20T07:43:07;22529.81;;;-144.48;100.00
4123;BME280;2075;51.062;6.920;2022-11-20T07:45:54;25586.63;;;-144.48;100.00
4123;BME280;2075;51.062;6.920;2022-11-20T07:48:40;27881.03;;;-144.48;100.00
4123;BME280;2075;51.062;6.920;2022-11-20T07:51:25;32730.03;;;-144.48;100.00
4123;BME280;2075;51.062;6.920;2022-11-20T07:54:11;39121.03;;;-144.48;100.00
4123;BME280;2075;51.062;6.920;2022-11-20T07:56:58;39888.75;;;-144.48;100.00
4123;BME280;2075;51.062;6.920;2022-11-20T07:59:43;41168.72;;;-144.48;100.00
4123;BME280;2075;51.062;6.920;2022-11-20T08:02:29;40144.72;;;-144.48;100.00
4123;BME280;2075;51.062;6.920;2022-11-20T08:05:15;37586.06;;;-144.48;100.00
4123;BME280;2075;51.062;6.920;2022-11-20T08:08:01;36818.88;;;-144.48;100.00
4123;BME280;2075;51.062;6.920;2022-11-20T08:10:46;39632.81;;;-144.48;100.00
4123;BME280;2075;51.062;6.920;2022-11-20T08:13:33;41936.91;;;-144.48;100.00
4123;BME280;2075;51.062;6.920;2022-11-20T08:16:35;48088.88;;;-144.48;100.00
4123;BME280;2075;51.062;6.920;2022-11-20T08:19:21;52967.16;;;-144.48;100.00
4123;BME280;2075;51.062;6.920;2022-11-20T08:22:07;53995.03;;;-144.48;100.00
4123;BME280;2075;51.062;6.920;2022-11-20T08:24:52;57080.63;;;-144.48;100.00
4123;BME280;2075;51.062;6.920;2022-11-20T08:27:38;63775.66;;;-144.48;100.00
4123;BME280;2075;51.062;6.920;2022-11-20T08:30:25;68934.69;;;-144.48;100.00
4123;BME280;2075;51.062;6.920;2022-11-20T08:33:10;74368.13;;;-144.48;100.00
4123;BME280;2075;51.062;6.920;2022-11-20T08:35:58;72663.69;;;-144.48;100.00
4123;BME280;2075;51.062;6.920;2022-11-20T08:38:47;74479.22;;;-144.48;100.00
4123;BME280;2075;51.062;6.920;2022-11-20T08:41:32;68676.53;;;-144.48;100.00
4123;BME280;2075;51.062;6.920;2022-11-20T08:44:18;73584.47;;;-144.48;100.00
4123;BME280;2075;51.062;6.920;2022-11-20T08:47:05;80119.72;;;-144.48;100.00
4123;BME280;2075;51.062;6.920;2022-11-20T08:49:50;83530.78;;;-144.48;100.00
4123;BME280;2075;51.062;6.920;2022-11-20T08:52:36;86446.50;;;-144.48;99.71
4123;BME280;2075;51.062;6.920;2022-11-20T08:55:22;87087.09;;;-144.48;96.09
4123;BME280;2075;51.062;6.920;2022-11-20T08:58:09;88196.31;;;-144.48;95.21
4123;BME280;2075;51.062;6.920;2022-11-20T09:00:54;87452.06;;;-144.48;95.68
4123;BME280;2075;51.062;6.920;2022-11-20T09:03:41;88599.91;;;-144.48;94.84
4123;BME280;2075;51.062;6.920;2022-11-20T09:06:26;89279.47;;;-144.48;94.54
4123;BME280;2075;51.062;6.920;2022-11-20T09:09:12;89478.28;;;-144.48;94.07
4123;BME280;2075;51.062;6.920;2022-11-20T09:11:58;91576.75;;;-144.48;92.71
4123;BME280;2075;51.062;6.920;2022-11-20T09:14:44;92003.09;;;-144.48;92.72
4123;BME280;2075;51.062;6.920;2022-11-20T09:17:29;92141.19;;;-144.48;92.21
4123;BME280;2075;51.062;6.920;2022-11-20T09:20:16;92606.16;;;-144.48;91.95
4123;BME280;2075;51.062;6.920;2022-11-20T09:23:02;93306.81;;;-144.48;90.40
4123;BME280;2075;51.062;6.920;2022-11-20T09:25:47;93969.03;;;-144.48;89.45
4123;BME280;2075;51.062;6.920;2022-11-20T09:28:33;94160.00;;;-144.48;89.14
4123;BME280;2075;51.062;6.920;2022-11-20T09:31:22;94147.81;;;-144.48;89.29
4123;BME280;2075;51.062;6.920;2022-11-20T09:34:07;93977.16;;;-144.48;90.11
4123;BME280;2075;51.062;6.920;2022-11-20T09:36:55;93735.41;;;-144.48;90.74
4123;BME280;2075;51.062;6.920;2022-11-20T09:39:41;94088.88;;;-144.48;89.39
4123;BME280;2075;51.062;6.920;2022-11-20T09:42:34;94332.69;;;-144.48;87.76
4123;BME280;2075;51.062;6.920;2022-11-20T09:45:33;94525.69;;;-144.48;86.31
4123;BME280;2075;51.062;6.920;2022-11-20T09:51:38;94489.13;;;-144.48;87.77
4123;BME280;2075;51.062;6.920;2022-11-20T09:54:30;94204.69;;;-144.48;89.73
4123;BME280;2075;51.062;6.920;2022-11-20T09:57:19;94029.97;;;-144.48;90.26
4123;BME280;2075;51.062;6.920;2022-11-20T10:00:11;93993.41;;;-144.48;90.06
4123;BME280;2075;51.062;6.920;2022-11-20T10:03:01;94422.06;;;-144.48;88.65
4123;BME280;2075;51.062;6.920;2022-11-20T10:05:54;94318.47;;;-144.48;88.08
4123;BME280;2075;51.062;6.920;2022-11-20T10:08:43;94277.81;;;-144.48;88.52
4123;BME280;2075;51.062;6.920;2022-11-20T10:11:38;94257.50;;;-144.48;88.21
4123;BME280;2075;51.062;6.920;2022-11-20T10:14:38;94379.41;;;-144.48;87.43
4123;BME280;2075;51.062;6.920;2022-11-20T10:17:40;94472.88;;;-144.48;87.46
4123;BME280;2075;51.062;6.920;2022-11-20T10:20:42;94474.91;;;-144.48;87.73
4123;BME280;2075;51.062;6.920;2022-11-20T10:23:56;94375.34;;;-144.48;89.05
4123;BME280;2075;51.062;6.920;2022-11-20T10:26:50;94294.09;;;-144.48;89.87
4123;BME280;2075;51.062;6.920;2022-11-20T10:29:41;93989.34;;;-144.48;90.42
4123;BME280;2075;51.062;6.920;2022-11-20T10:32:33;93973.09;;;-144.48;90.39
4123;BME280;2075;51.062;6.920;2022-11-20T10:35:25;93678.53;;;-144.48;91.00
4123;BME280;2075;51.062;6.920;2022-11-20T10:38:16;93918.25;;;-144.48;89.81
4123;BME280;2075;51.062;6.920;2022-11-20T10:41:04;94164.06;;;-144.48;89.47
4123;BME280;2075;51.062;6.920;2022-11-20T10:44:14;93940.59;;;-144.48;90.23
4123;BME280;2075;51.062;6.920;2022-11-20T10:47:20;94094.97;;;-144.48;89.72
4123;BME280;2075;51.062;6.920;2022-11-20T10:50:11;94090.91;;;-144.48;90.00
4123;BME280;2075;51.062;6.920;2022-11-20T10:53:03;93826.81;;;-144.48;90.37
4123;BME280;2075;51.062;6.920;2022-11-20T10:55:53;94015.75;;;-144.48;89.70
4123;BME280;2075;51.062;6.920;2022-11-20T10:58:45;94196.56;;;-144.48;88.37
4123;BME280;2075;51.062;6.920;2022-11-20T11:01:40;94310.34;;;-144.48;87.39
4123;BME280;2075;51.062;6.920;2022-11-20T11:04:37;94418.00;;;-144.48;87.41
4123;BME280;2075;51.062;6.920;2022-11-20T11:07:27;94434.28;;;-144.48;87.68
4123;BME280;2075;51.062;6.920;2022-11-20T11:10:16;94440.38;;;-144.48;86.96
4123;BME280;2075;51.062;6.920;2022-11-20T11:13:03;94385.50;;;-144.48;88.12
4123;BME280;2075;51.062;6.920;2022-11-20T11:15:48;94257.50;;;-144.48;89.33
4123;BME280;2075;51.062;6.920;2022-11-20T11:18:35;94086.84;;;-144.48;89.90
4123;BME280;2075;51.062;6.920;2022-11-20T11:21:24;94127.50;;;-144.48;89.57
4123;BME280;2075;51.062;6.920;2022-11-20T11:24:20;93946.69;;;-144.48;90.77
4123;BME280;2075;51.062;6.920;2022-11-20T11:27:12;93847.13;;;-144.48;90.27
4123;BME280;2075;51.062;6.920;2022-11-20T11:30:11;93924.34;;;-144.48;90.31
4123;BME280;2075;51.062;6.920;2022-11-20T11:33:05;94497.25;;;-144.48;89.26
4123;BME280;2075;51.062;6.920;2022-11-20T11:35:54;94052.31;;;-144.48;89.99
4123;BME280;2075;51.062;6.920;2022-11-20T11:38:43;93932.47;;;-144.48;90.35
4123;BME280;2075;51.062;6.920;2022-11-20T11:41:31;93528.22;;;-144.48;91.45
4123;BME280;2075;51.062;6.920;2022-11-20T11:44:21;93463.22;;;-144.48;91.02
4123;BME280;2075;51.062;6.920;2022-11-20T11:47:25;93426.66;;;-144.48;91.55
4123;BME280;2075;51.062;6.920;2022-11-20T11:50:18;93814.63;;;-144.48;90.58
4123;BME280;2075;51.062;6.920;2022-11-20T11:53:09;93763.84;;;-144.48;90.67
4123;BME280;2075;51.062;6.920;2022-11-20T11:56:02;93904.03;;;-144.48;90.08
4123;BME280;2075;51.062;6.920;2022-11-20T11:58:52;93928.41;;;-144.48;89.69
4123;BME280;2075;51.062;6.920;2022-11-20T12:01:43;93723.22;;;-144.48;90.34
4123;BME280;2075;51.062;6.920;2022-11-20T12:04:42;93920.28;;;-144.48;89.50
4123;BME280;2075;51.062;6.920;2022-11-20T12:07:38;94131.56;;;-144.48;88.82
4123;BME280;2075;51.062;6.920;2022-11-20T12:10:37;94119.34;;;-144.48;89.36
4123;BME280;2075;51.062;6.920;2022-11-20T12:13:44;93839.00;;;-144.48;90.10
4123;BME280;2075;51.062;6.920;2022-11-20T12:16:35;93952.78;;;-144.48;90.21
4123;BME280;2075;51.062;6.920;2022-11-20T12:19:21;93747.59;;;-144.48;90.60
4123;BME280;2075;51.062;6.920;2022-11-20T12:22:18;93471.34;;;-144.48;91.05
4123;BME280;2075;51.062;6.920;2022-11-20T12:25:11;93087.47;;;-144.48;92.31
4123;BME280;2075;51.062;6.920;2022-11-20T12:28:16;93014.38;;;-144.48;92.16
4123;BME280;2075;51.062;6.920;2022-11-20T12:31:31;92583.84;;;-144.48;92.47
4123;BME280;2075;51.062;6.920;2022-11-20T12:34:38;90714.09;;;-144.48;94.03
4123;BME280;2075;51.062;6.920;2022-11-20T12:37:35;91288.50;;;-144.48;93.42
4123;BME280;2075;51.062;6.920;2022-11-20T12:40:28;90839.94;;;-144.48;93.80
4123;BME280;2075;51.062;6.920;2022-11-20T12:43:20;91580.81;;;-144.48;93.22
4123;BME280;2075;51.062;6.920;2022-11-20T12:46:31;91412.34;;;-144.48;93.00
4123;BME280;2075;51.062;6.920;2022-11-20T12:49:32;90125.56;;;-144.48;94.21
4123;BME280;2075;51.062;6.920;2022-11-20T12:52:35;89644.66;;;-144.48;94.16
4123;BME280;2075;51.062;6.920;2022-11-20T12:55:36;89782.63;;;-144.48;93.66
4123;BME280;2075;51.062;6.920;2022-11-20T12:58:34;89612.19;;;-144.48;93.64
4123;BME280;2075;51.062;6.920;2022-11-20T13:01:29;88561.38;;;-144.48;94.24
4123;BME280;2075;51.062;6.920;2022-11-20T13:04:43;89796.84;;;-144.48;93.79
4123;BME280;2075;51.062;6.920;2022-11-20T13:07:32;91446.84;;;-144.48;92.71
4123;BME280;2075;51.062;6.920;2022-11-20T13:10:26;91306.78;;;-144.48;92.99
4123;BME280;2075;51.062;6.920;2022-11-20T13:13:18;91298.66;;;-144.48;93.02
4123;BME280;2075;51.062;6.920;2022-11-20T13:16:10;92003.09;;;-144.48;91.97
4123;BME280;2075;51.062;6.920;2022-11-20T13:19:01;91582.84;;;-144.48;92.47
4123;BME280;2075;51.062;6.920;2022-11-20T13:21:48;92366.56;;;-144.48;91.72
4123;BME280;2075;51.062;6.920;2022-11-20T13:24:34;92685.38;;;-144.48;91.68
4123;BME280;2075;51.062;6.920;2022-11-20T13:27:21;92013.25;;;-144.48;92.51
4123;BME280;2075;51.062;6.920;2022-11-20T13:30:16;91706.69;;;-144.48;92.44
4123;BME280;2075;51.062;6.920;2022-11-20T13:33:07;91349.41;;;-144.48;93.05
4123;BME280;2075;51.062;6.920;2022-11-20T13:35:58;91678.28;;;-144.48;92.71
4123;BME280;2075;51.062;6.920;2022-11-20T13:38:47;92248.78;;;-144.48;91.89
4123;BME280;2075;51.062;6.920;2022-11-20T13:41:35;92799.09;;;-144.48;91.08
4123;BME280;2075;51.062;6.920;2022-11-20T13:44:25;93063.09;;;-144.48;91.16
4123;BME280;2075;51.062;6.920;2022-11-20T13:47:23;92478.25;;;-144.48;92.23
4123;BME280;2075;51.062;6.920;2022-11-20T13:50:14;93079.34;;;-144.48;91.30
4123;BME280;2075;51.062;6.920;2022-11-20T13:53:06;93071.22;;;-144.48;91.29
4123;BME280;2075;51.062;6.920;2022-11-20T13:56:00;92752.38;;;-144.48;91.81
4123;BME280;2075;51.062;6.920;2022-11-20T13:58:54;92354.38;;;-144.48;92.35
4123;BME280;2075;51.062;6.920;2022-11-20T14:01:45;91576.75;;;-144.48;92.68
4123;BME280;2075;51.062;6.920;2022-11-20T14:04:33;91919.88;;;-144.48;92.72
4123;BME280;2075;51.062;6.920;2022-11-20T14:07:25;92045.75;;;-144.48;92.58
4123;BME280;2075;51.062;6.920;2022-11-20T14:10:20;91381.88;;;-144.48;93.08
4123;BME280;2075;51.062;6.920;2022-11-20T14:13:17;90338.63;;;-144.48;93.66
4123;BME280;2075;51.062;6.920;2022-11-20T14:16:03;89228.75;;;-144.48;94.31
4123;BME280;2075;51.062;6.920;2022-11-20T14:18:48;89086.75;;;-144.48;93.93
4123;BME280;2075;51.062;6.920;2022-11-20T14:21:34;88589.78;;;-144.48;94.57
4123;BME280;2075;51.062;6.920;2022-11-20T14:24:22;88096.94;;;-144.48;94.28
4123;BME280;2075;51.062;6.920;2022-11-20T14:27:13;89129.34;;;-144.48;94.23
4123;BME280;2075;51.062;6.920;2022-11-20T14:30:00;88034.06;;;-144.48;94.29
4123;BME280;2075;51.062;6.920;2022-11-20T14:32:47;87612.25;;;-144.48;94.65
4123;BME280;2075;51.062;6.920;2022-11-20T14:35:37;87322.31;;;-144.48;94.87
4123;BME280;2075;51.062;6.920;2022-11-20T14:38:27;82809.81;;;-144.48;95.60
4123;BME280;2075;51.062;6.920;2022-11-20T14:41:21;78519.63;;;-144.48;96.34
4123;BME280;2075;51.062;6.920;2022-11-20T14:44:09;77057.75;;;-144.48;96.76
4123;BME280;2075;51.062;6.920;2022-11-20T14:47:00;74026.75;;;-144.48;97.45
4123;BME280;2075;51.062;6.920;2022-11-20T14:49:47;66612.16;;;-144.48;98.24
4123;BME280;2075;51.062;6.920;2022-11-20T14:52:33;64033.44;;;-144.48;98.95
4123;BME280;2075;51.062;6.920;2022-11-20T14:55:26;64033.44;;;-144.48;98.54